Tallapoosa, Georgia
Current Conditions -  °F | °C
As of 3:55 PM on Friday 31 Oct 2014 (Local Time) from KCTJ Reporting Station
Scattered Clouds Scattered Clouds  
Wind Chill: 59°   Ceiling: Unl
Heat Index: 59°   Visibility: 10mi
Dew Point: 41°   Wind: 12mph
Humidity: 51%   Direction: 340°NNW
Pressure: 29.9"   Gusts: 17mph
Location:  33.74°N, 85.29°W
Report Text: KCTJ 311955Z AUTO 34010G15KT 10SM SCT100 15/05 A2990 RMK AO2
Loading
Personal Weather Stations






























Interactive Weather Map
Tropical Storm Tracking
New forecast layout! Learn more

10-Day Weather Forecast

Advertisements
Track Severe Weather on mobile